Time;durP1;ratioP1;P1;durP2;ratioP2;P2;SDS_P1;SDS_P2;PMS_P1;PMS_P2;Temp;Humidity;BMP_temperature;BMP_pressure;BME280_temperature;BME280_humidity;BME280_pressure;Samples;Min_cycle;Max_cycle;Signal;HPM_P1;HPM_P2
2024/04/14 00:00:43;;;;;;;8.68;4.05;;;14.10;99.90;;;;;;5451733;26;20661;-72
2024/04/14 00:03:11;;;;;;;8.52;2.92;;;14.00;99.90;;;;;;5436499;26;20014;-72
2024/04/14 00:05:57;;;;;;;10.93;2.20;;;13.90;99.90;;;;;;5475176;20;20097;-71
2024/04/14 00:08:23;;;;;;;8.43;2.70;;;13.90;99.90;;;;;;5487555;26;20006;-71
2024/04/14 00:10:49;;;;;;;6.70;2.13;;;13.80;99.90;;;;;;5487525;26;20360;-71
2024/04/14 00:13:14;;;;;;;11.77;2.60;;;13.70;99.90;;;;;;5487307;26;20002;-71
2024/04/14 00:15:40;;;;;;;10.50;2.08;;;13.70;99.90;;;;;;5487760;26;20012;-71
2024/04/14 00:18:06;;;;;;;9.07;2.33;;;13.60;99.90;;;;;;5488018;26;20002;-71
2024/04/14 00:20:32;;;;;;;6.07;1.90;;;13.60;99.90;;;;;;5487363;26;19998;-71
2024/04/14 00:22:59;;;;;;;8.60;1.80;;;13.50;99.90;;;;;;5487822;26;20002;-70
2024/04/14 00:25:25;;;;;;;7.03;1.70;;;13.50;99.90;;;;;;5487286;26;20422;-71
2024/04/14 00:27:50;;;;;;;6.00;1.80;;;13.40;99.90;;;;;;5487610;26;20411;-71
2024/04/14 00:30:16;;;;;;;5.55;1.23;;;13.40;99.90;;;;;;5487125;26;20066;-71
2024/04/14 00:32:42;;;;;;;5.22;1.40;;;13.40;99.90;;;;;;5487630;26;20013;-70
2024/04/14 00:35:08;;;;;;;4.88;1.52;;;13.30;99.90;;;;;;5486779;26;20446;-71
2024/04/14 00:37:39;;;;;;;14.90;2.17;;;13.20;99.90;;;;;;5487441;26;20345;-70
2024/04/14 00:40:14;;;;;;;10.38;1.73;;;13.20;99.90;;;;;;5487368;26;19994;-71
2024/04/14 00:42:44;;;;;;;10.63;2.17;;;13.20;99.90;;;;;;5487360;26;20003;-72
2024/04/14 00:45:11;;;;;;;6.32;1.40;;;13.10;99.90;;;;;;5486782;26;20009;-71
2024/04/14 00:47:57;;;;;;;3.85;1.30;;;13.10;99.90;;;;;;5485699;26;20002;-71
2024/04/14 00:50:24;;;;;;;6.00;1.98;;;13.00;99.90;;;;;;5487009;26;20009;-71
2024/04/14 00:52:51;;;;;;;3.88;1.40;;;12.90;99.90;;;;;;5487522;26;20002;-70
2024/04/14 00:55:19;;;;;;;6.07;1.33;;;12.90;99.90;;;;;;5486548;26;20008;-71
2024/04/14 00:57:47;;;;;;;6.60;1.50;;;12.80;99.90;;;;;;5485208;26;20013;-71
2024/04/14 01:00:16;;;;;;;8.77;2.40;;;12.80;99.90;;;;;;5486782;26;20051;-71
2024/04/14 01:02:42;;;;;;;7.45;1.48;;;12.80;99.90;;;;;;5488080;26;20014;-71
2024/04/14 01:05:08;;;;;;;4.53;1.33;;;12.70;99.90;;;;;;5490036;26;20006;-71
2024/04/14 01:07:36;;;;;;;7.32;1.52;;;12.60;99.90;;;;;;5490402;26;20009;-71
2024/04/14 01:10:02;;;;;;;7.68;1.48;;;12.60;99.90;;;;;;5490084;26;20466;-71
2024/04/14 01:12:28;;;;;;;7.28;1.33;;;12.50;99.90;;;;;;5490439;26;20002;-71
2024/04/14 01:14:53;;;;;;;6.85;1.67;;;12.50;99.90;;;;;;5489804;26;20012;-71
2024/04/14 01:17:19;;;;;;;7.28;1.48;;;12.40;99.90;;;;;;5490213;26;20014;-71
2024/04/14 01:19:45;;;;;;;9.25;1.58;;;12.40;99.90;;;;;;5490110;26;20493;-71
2024/04/14 01:22:11;;;;;;;7.60;1.65;;;12.30;99.90;;;;;;5490275;26;20013;-71
2024/04/14 01:24:36;;;;;;;9.30;1.90;;;12.30;99.90;;;;;;5487954;26;20017;-71
2024/04/14 01:27:02;;;;;;;9.35;1.77;;;12.30;99.90;;;;;;5490122;26;20002;-70
2024/04/14 01:29:28;;;;;;;6.47;1.70;;;12.20;99.90;;;;;;5490107;26;20579;-71
2024/04/14 01:31:54;;;;;;;7.82;1.58;;;12.10;99.90;;;;;;5489924;26;20490;-71
2024/04/14 01:34:21;;;;;;;7.80;1.95;;;12.10;99.90;;;;;;5489604;26;20002;-70
2024/04/14 01:36:46;;;;;;;6.55;1.10;;;12.10;99.90;;;;;;5488469;26;20338;-71
2024/04/14 01:39:12;;;;;;;9.07;2.22;;;12.00;99.90;;;;;;5490200;26;20006;-70
2024/04/14 01:41:38;;;;;;;11.07;2.08;;;12.00;99.90;;;;;;5489812;26;20013;-71
2024/04/14 01:44:24;;;;;;;7.38;1.48;;;12.00;99.90;;;;;;5488040;26;20014;-70
2024/04/14 01:46:51;;;;;;;12.05;1.85;;;12.00;99.90;;;;;;5489918;26;20364;-71
2024/04/14 01:49:17;;;;;;;12.38;1.50;;;11.90;99.90;;;;;;5489984;26;20002;-71
2024/04/14 01:51:42;;;;;;;9.43;1.98;;;11.90;99.90;;;;;;5489614;26;20039;-70
2024/04/14 01:54:21;;;;;;;7.75;1.67;;;11.90;99.90;;;;;;5489402;26;20003;-71
2024/04/14 01:56:47;;;;;;;9.95;1.67;;;11.80;99.90;;;;;;5489893;26;20077;-71
2024/04/14 01:59:12;;;;;;;8.73;1.65;;;11.80;99.90;;;;;;5489890;26;20017;-71
2024/04/14 02:01:38;;;;;;;10.50;2.15;;;11.80;99.90;;;;;;5489514;26;20002;-71
2024/04/14 02:04:04;;;;;;;13.25;2.10;;;11.70;99.90;;;;;;5489249;26;20047;-71
2024/04/14 02:06:31;;;;;;;9.02;1.85;;;11.70;99.90;;;;;;5473187;26;20073;-71
2024/04/14 02:08:57;;;;;;;8.93;1.60;;;11.60;99.90;;;;;;5453200;26;20048;-70
2024/04/14 02:11:22;;;;;;;11.88;2.22;;;11.60;99.90;;;;;;5453273;26;19999;-71
2024/04/14 02:13:48;;;;;;;13.07;2.13;;;11.60;99.90;;;;;;5452354;26;20013;-71
2024/04/14 02:16:14;;;;;;;13.52;2.05;;;11.50;99.90;;;;;;5453349;26;20018;-70
2024/04/14 02:18:40;;;;;;;7.72;1.38;;;11.50;99.90;;;;;;5453105;26;20003;-71
2024/04/14 02:21:06;;;;;;;7.32;1.80;;;11.50;99.90;;;;;;5451153;26;20014;-70
2024/04/14 02:23:32;;;;;;;5.80;1.60;;;11.40;99.90;;;;;;5452409;26;20003;-71
2024/04/14 02:26:18;;;;;;;9.35;2.50;;;11.30;99.90;;;;;;5451570;26;20021;-70
2024/04/14 02:28:43;;;;;;;9.50;1.80;;;11.30;99.90;;;;;;5451327;26;20470;-70
2024/04/14 02:31:10;;;;;;;6.57;1.45;;;11.30;99.90;;;;;;5452878;26;19998;-72
2024/04/14 02:33:36;;;;;;;6.72;1.70;;;11.30;99.90;;;;;;5452510;26;20009;-71
2024/04/14 02:36:01;;;;;;;5.72;1.33;;;11.20;99.90;;;;;;5452963;26;20003;-70
2024/04/14 02:38:28;;;;;;;9.68;2.28;;;11.30;99.90;;;;;;5453002;26;20034;-70
2024/04/14 02:40:59;;;;;;;7.28;1.25;;;11.20;99.90;;;;;;5452607;26;19999;-71
2024/04/14 02:43:25;;;;;;;7.25;1.50;;;11.20;99.90;;;;;;5452152;26;20015;-70
2024/04/14 02:45:56;;;;;;;8.98;1.95;;;11.20;99.90;;;;;;5452676;26;20002;-70
2024/04/14 02:48:49;;;;;;;8.93;1.70;;;11.10;99.90;;;;;;5451290;26;20003;-70
2024/04/14 02:51:35;;;;;;;9.38;1.48;;;11.10;99.90;;;;;;5451049;26;20652;-70
2024/04/14 02:54:13;;;;;;;10.43;1.50;;;11.00;99.90;;;;;;5450900;26;20003;-71
2024/04/14 02:56:39;;;;;;;6.43;1.40;;;11.00;99.90;;;;;;5452465;26;20560;-71
2024/04/14 02:59:24;;;;;;;9.55;2.25;;;11.00;99.90;;;;;;5451238;26;20021;-71
2024/04/14 03:01:50;;;;;;;9.20;1.73;;;10.90;99.90;;;;;;5452228;26;19999;-70
2024/04/14 03:04:16;;;;;;;7.82;1.73;;;10.90;99.90;;;;;;5451184;26;20007;-71
2024/04/14 03:06:42;;;;;;;7.97;2.05;;;10.90;99.90;;;;;;5467483;26;20003;-70
2024/04/14 03:09:08;;;;;;;8.35;1.33;;;10.80;99.90;;;;;;5479571;26;20017;-71
2024/04/14 03:11:54;;;;;;;10.05;1.38;;;10.80;99.90;;;;;;5477766;26;20010;-70
2024/04/14 03:14:20;;;;;;;7.22;1.52;;;10.80;99.90;;;;;;5488174;26;20002;-70
2024/04/14 03:16:47;;;;;;;8.48;1.48;;;10.80;99.90;;;;;;5480462;26;20462;-70
2024/04/14 03:19:33;;;;;;;5.65;1.45;;;10.70;99.90;;;;;;5451293;26;20071;-71
2024/04/14 03:22:18;;;;;;;7.60;1.45;;;10.60;99.90;;;;;;5450812;26;20003;-71
2024/04/14 03:25:05;;;;;;;5.50;2.03;;;10.60;99.90;;;;;;5449155;26;19999;-70
2024/04/14 03:27:51;;;;;;;13.15;2.60;;;10.60;99.90;;;;;;5450757;26;19999;-73
2024/04/14 03:30:36;;;;;;;5.97;1.30;;;10.60;99.90;;;;;;5450267;26;20485;-74
2024/04/14 03:33:22;;;;;;;6.05;1.40;;;10.50;99.90;;;;;;5450121;26;20538;-73
2024/04/14 03:36:08;;;;;;;11.43;1.83;;;10.50;99.90;;;;;;5450546;26;20462;-73
2024/04/14 03:38:54;;;;;;;7.25;1.50;;;10.50;99.90;;;;;;5450612;26;20003;-71
2024/04/14 03:41:39;;;;;;;6.63;2.05;;;10.50;99.90;;;;;;5450305;26;20002;-71
2024/04/14 03:44:28;;;;;;;10.15;2.25;;;10.40;99.90;;;;;;5449877;26;20719;-71
2024/04/14 03:47:14;;;;;;;4.65;1.50;;;10.40;99.90;;;;;;5450404;26;20017;-71
2024/04/14 03:50:00;;;;;;;6.60;2.08;;;10.40;99.90;;;;;;5450113;26;20446;-70
2024/04/14 03:52:46;;;;;;;8.10;1.60;;;10.30;99.90;;;;;;5450396;26;20033;-71
2024/04/14 03:55:32;;;;;;;9.88;2.20;;;10.30;99.90;;;;;;5449733;26;20018;-71
2024/04/14 03:58:18;;;;;;;6.88;1.58;;;10.30;99.90;;;;;;5450482;26;20079;-71
2024/04/14 04:01:03;;;;;;;7.65;1.27;;;10.20;99.90;;;;;;5450159;26;20002;-73
2024/04/14 04:04:03;;;;;;;9.68;2.50;;;10.20;99.90;;;;;;5581201;25;20412;-72
2024/04/14 04:06:50;;;;;;;8.45;1.88;;;10.10;99.90;;;;;;5560649;25;20079;-72
2024/04/14 04:09:35;;;;;;;11.73;1.67;;;10.10;99.90;;;;;;5580121;25;20000;-72
2024/04/14 04:12:21;;;;;;;5.70;1.73;;;10.00;99.90;;;;;;5579912;25;20349;-72
2024/04/14 04:15:07;;;;;;;5.50;1.33;;;10.10;99.90;;;;;;5579254;25;20011;-73
2024/04/14 04:17:52;;;;;;;7.95;1.95;;;10.00;99.90;;;;;;5579748;25;20008;-72
2024/04/14 04:20:38;;;;;;;8.43;1.50;;;10.00;99.90;;;;;;5579402;25;20000;-72
2024/04/14 04:23:24;;;;;;;11.18;1.63;;;10.00;99.90;;;;;;5579000;25;20025;-72
2024/04/14 04:26:10;;;;;;;14.65;1.60;;;9.90;99.90;;;;;;5579663;25;20476;-72
2024/04/14 04:28:55;;;;;;;7.95;1.27;;;9.90;99.90;;;;;;5579585;25;20359;-72
2024/04/14 04:31:41;;;;;;;8.82;2.25;;;9.90;99.90;;;;;;5579042;25;20036;-72
2024/04/14 04:34:07;;;;;;;5.60;1.15;;;9.90;99.90;;;;;;5580099;25;20011;-72
2024/04/14 04:36:32;;;;;;;9.43;1.60;;;9.80;99.90;;;;;;5580810;25;20000;-72
2024/04/14 04:39:02;;;;;;;10.25;1.60;;;9.80;99.90;;;;;;5580762;25;20001;-72
2024/04/14 04:41:30;;;;;;;6.97;1.98;;;9.80;99.90;;;;;;5580453;25;20101;-72
2024/04/14 04:43:57;;;;;;;8.02;1.50;;;9.80;99.90;;;;;;5580091;25;20333;-72
2024/04/14 04:46:23;;;;;;;6.38;2.17;;;9.80;99.90;;;;;;5580709;25;20004;-72
2024/04/14 04:48:51;;;;;;;13.15;2.40;;;9.80;99.90;;;;;;5580829;25;20000;-72
2024/04/14 04:51:18;;;;;;;7.78;1.65;;;9.80;99.90;;;;;;5580348;25;20079;-72
2024/04/14 04:53:44;;;;;;;10.10;1.95;;;9.80;99.90;;;;;;5579997;25;20037;-72
2024/04/14 04:56:09;;;;;;;12.50;1.80;;;9.80;99.90;;;;;;5580886;25;20000;-72
2024/04/14 04:58:35;;;;;;;13.30;1.50;;;9.80;99.90;;;;;;5580382;25;20476;-72
2024/04/14 05:01:01;;;;;;;7.90;1.40;;;9.80;99.90;;;;;;5580251;25;20001;-72
2024/04/14 05:03:26;;;;;;;8.05;1.70;;;9.80;99.90;;;;;;5579556;25;20000;-72
2024/04/14 05:05:56;;;;;;;13.13;2.17;;;9.80;99.90;;;;;;5580326;25;20008;-72
2024/04/14 05:08:23;;;;;;;9.57;2.00;;;9.80;99.90;;;;;;5580451;25;20009;-72
2024/04/14 05:10:51;;;;;;;8.32;2.00;;;9.80;99.90;;;;;;5580089;25;20072;-72
2024/04/14 05:13:17;;;;;;;11.20;1.92;;;9.80;99.90;;;;;;5578425;25;20436;-72
2024/04/14 05:15:42;;;;;;;10.18;1.98;;;9.80;99.90;;;;;;5563745;25;20001;-72
2024/04/14 05:18:09;;;;;;;8.07;2.03;;;9.90;99.90;;;;;;5564556;25;20001;-72
2024/04/14 05:20:35;;;;;;;7.68;1.65;;;9.90;99.90;;;;;;5564269;25;20001;-73
2024/04/14 05:23:01;;;;;;;8.88;1.95;;;9.80;99.90;;;;;;5564587;25;20013;-72
2024/04/14 05:25:26;;;;;;;12.88;1.77;;;9.90;99.90;;;;;;5563767;25;19996;-72
2024/04/14 05:27:52;;;;;;;12.18;2.33;;;9.90;99.90;;;;;;5564411;25;20005;-73
2024/04/14 05:30:18;;;;;;;6.32;1.83;;;9.90;99.90;;;;;;5564174;25;20452;-72
2024/04/14 05:32:44;;;;;;;12.13;2.85;;;9.90;99.90;;;;;;5563929;25;20385;-73
2024/04/14 05:35:10;;;;;;;9.82;1.77;;;9.90;99.90;;;;;;5563689;25;20000;-72
2024/04/14 05:37:35;;;;;;;7.50;1.58;;;9.90;99.90;;;;;;5563881;25;20001;-72
2024/04/14 05:40:01;;;;;;;6.15;1.30;;;10.00;99.90;;;;;;5563571;25;19996;-72
2024/04/14 05:42:27;;;;;;;9.85;1.60;;;10.00;99.90;;;;;;5564030;25;20008;-73
2024/04/14 05:44:52;;;;;;;8.07;1.42;;;10.00;99.90;;;;;;5563528;25;20040;-73
2024/04/14 05:47:18;;;;;;;7.32;1.33;;;10.00;99.90;;;;;;5563801;25;20361;-72
2024/04/14 05:49:44;;;;;;;10.13;1.73;;;10.10;99.90;;;;;;5563588;25;20000;-72
2024/04/14 05:52:10;;;;;;;8.38;1.60;;;10.00;99.90;;;;;;5563756;25;20001;-72
2024/04/14 05:54:35;;;;;;;6.68;2.00;;;10.10;99.90;;;;;;5563020;25;20000;-72
2024/04/14 05:57:01;;;;;;;13.88;1.80;;;10.00;99.90;;;;;;5563525;25;20464;-72
2024/04/14 05:59:27;;;;;;;6.90;1.50;;;10.10;99.90;;;;;;5563617;25;20026;-72
2024/04/14 06:01:52;;;;;;;8.90;2.20;;;10.10;99.90;;;;;;5563025;25;20000;-72
2024/04/14 06:04:18;;;;;;;7.95;1.50;;;10.10;99.90;;;;;;5562806;25;20000;-72
2024/04/14 06:06:44;;;;;;;5.78;1.42;;;10.10;99.90;;;;;;5542385;21;20447;-73
2024/04/14 06:09:32;;;;;;;8.68;1.98;;;10.20;99.90;;;;;;5390086;26;20084;-73
2024/04/14 06:11:57;;;;;;;10.63;1.63;;;10.40;99.90;;;;;;5385214;26;20000;-73
2024/04/14 06:14:23;;;;;;;12.18;2.03;;;10.50;99.90;;;;;;5416083;26;20014;-73
2024/04/14 06:16:49;;;;;;;9.05;1.95;;;10.60;99.90;;;;;;5416704;26;20017;-73
2024/04/14 06:19:16;;;;;;;8.88;2.00;;;10.70;99.90;;;;;;5416646;26;20007;-73
2024/04/14 06:21:43;;;;;;;9.23;1.45;;;10.80;99.90;;;;;;5416361;26;20018;-73
2024/04/14 06:24:09;;;;;;;8.15;1.50;;;10.90;99.90;;;;;;5415967;26;20144;-73
2024/04/14 06:26:34;;;;;;;4.93;1.20;;;11.00;99.90;;;;;;5414699;26;20015;-73
2024/04/14 06:29:00;;;;;;;10.90;1.92;;;11.10;99.90;;;;;;5416397;26;20351;-73
2024/04/14 06:31:26;;;;;;;7.57;2.88;;;11.00;99.90;;;;;;5416218;26;20026;-73
2024/04/14 06:33:51;;;;;;;7.70;1.20;;;11.00;99.90;;;;;;5415805;26;20004;-73
2024/04/14 06:36:17;;;;;;;7.85;1.35;;;11.10;99.90;;;;;;5416380;26;20004;-73
2024/04/14 06:38:44;;;;;;;10.25;1.85;;;11.30;99.90;;;;;;5416401;26;20015;-73
2024/04/14 06:41:13;;;;;;;11.13;1.45;;;11.40;99.90;;;;;;5384852;26;20004;-73
2024/04/14 06:43:38;;;;;;;9.57;2.00;;;11.60;99.90;;;;;;5415441;26;20069;-73
2024/04/14 06:46:05;;;;;;;8.95;1.67;;;11.60;99.90;;;;;;5412564;26;20000;-73
2024/04/14 06:48:30;;;;;;;7.95;1.90;;;11.70;99.90;;;;;;5415998;26;20015;-73
2024/04/14 06:50:56;;;;;;;7.05;1.63;;;12.00;99.90;;;;;;5415801;26;20048;-73
2024/04/14 06:53:22;;;;;;;5.75;1.73;;;12.10;99.90;;;;;;5415390;26;20383;-73
2024/04/14 06:55:50;;;;;;;9.40;1.70;;;12.10;99.90;;;;;;5416037;26;20354;-73
2024/04/14 06:58:16;;;;;;;7.47;1.92;;;12.20;99.90;;;;;;5415606;26;20467;-73
2024/04/14 07:00:42;;;;;;;8.93;1.58;;;12.20;99.90;;;;;;5396279;26;20085;-74
2024/04/14 07:03:09;;;;;;;7.63;1.90;;;12.40;99.90;;;;;;5370286;26;20007;-74
2024/04/14 07:05:35;;;;;;;4.75;1.20;;;12.60;99.90;;;;;;5339229;26;20004;-75
2024/04/14 07:08:01;;;;;;;5.63;1.90;;;12.90;99.90;;;;;;5369824;26;20000;-73
2024/04/14 07:10:27;;;;;;;8.00;1.83;;;13.20;99.90;;;;;;5370864;26;20577;-74
2024/04/14 07:12:53;;;;;;;7.20;1.83;;;13.50;99.90;;;;;;5370327;26;20010;-74
2024/04/14 07:15:19;;;;;;;11.60;2.20;;;13.60;99.90;;;;;;5352836;26;19999;-71
2024/04/14 07:17:46;;;;;;;8.48;1.75;;;13.80;99.90;;;;;;5331364;26;20000;-70
2024/04/14 07:20:12;;;;;;;6.07;2.03;;;14.00;99.90;;;;;;5361005;26;20439;-70
2024/04/14 07:22:37;;;;;;;7.78;1.30;;;13.90;99.90;;;;;;5412245;26;20067;-71
2024/04/14 07:25:03;;;;;;;6.80;1.17;;;14.00;99.90;;;;;;5413424;26;20443;-70
2024/04/14 07:27:29;;;;;;;7.82;1.20;;;14.00;99.90;;;;;;5413725;26;20014;-71
2024/04/14 07:29:55;;;;;;;4.85;1.73;;;14.50;99.90;;;;;;5414282;26;20003;-71
2024/04/14 07:32:21;;;;;;;9.35;1.70;;;14.60;99.20;;;;;;5414504;26;20005;-71
2024/04/14 07:34:47;;;;;;;7.18;2.25;;;14.50;96.20;;;;;;5412771;26;20039;-71
2024/04/14 07:37:13;;;;;;;11.63;1.73;;;14.60;94.30;;;;;;5413542;26;20432;-71
2024/04/14 07:39:39;;;;;;;5.28;1.25;;;14.50;93.80;;;;;;5414701;26;20047;-71
2024/04/14 07:42:07;;;;;;;7.32;1.40;;;14.70;93.40;;;;;;5414643;26;20014;-71
2024/04/14 07:44:34;;;;;;;4.78;1.02;;;14.80;92.20;;;;;;5414338;26;20015;-71
2024/04/14 07:46:59;;;;;;;5.13;1.13;;;14.80;90.30;;;;;;5415329;26;20015;-71
2024/04/14 07:49:25;;;;;;;6.13;1.20;;;14.80;85.90;;;;;;5415018;26;20075;-71
2024/04/14 07:51:51;;;;;;;7.72;1.20;;;15.00;90.40;;;;;;5414596;26;20618;-71
2024/04/14 07:54:17;;;;;;;5.95;1.80;;;15.20;87.50;;;;;;5414478;26;20011;-71
2024/04/14 07:56:42;;;;;;;4.22;1.10;;;15.20;82.00;;;;;;5414958;26;20003;-70
2024/04/14 07:59:08;;;;;;;4.60;0.93;;;15.10;77.30;;;;;;5383935;26;20014;-71
2024/04/14 08:01:34;;;;;;;4.93;1.23;;;15.20;81.40;;;;;;5409106;26;20084;-71
2024/04/14 08:04:01;;;;;;;5.85;0.88;;;15.10;76.90;;;;;;5388342;26;20395;-71
2024/04/14 08:06:27;;;;;;;2.97;0.80;;;15.40;79.10;;;;;;5385409;26;20015;-70
2024/04/14 08:08:53;;;;;;;4.35;1.13;;;15.10;73.50;;;;;;5403456;26;20016;-71
2024/04/14 08:11:21;;;;;;;5.18;1.42;;;15.40;78.00;;;;;;5391423;26;20748;-72
2024/04/14 08:13:47;;;;;;;8.50;2.08;;;15.20;71.90;;;;;;5412326;26;20008;-71
2024/04/14 08:16:12;;;;;;;4.32;1.27;;;15.00;62.30;;;;;;5414482;26;20478;-71
2024/04/14 08:18:38;;;;;;;8.95;1.67;;;15.20;70.70;;;;;;5409513;26;20008;-70
2024/04/14 08:21:04;;;;;;;5.38;1.83;;;15.10;63.50;;;;;;5394587;26;20007;-71
2024/04/14 08:23:30;;;;;;;4.55;1.35;;;14.90;68.70;;;;;;5413527;26;20007;-71
2024/04/14 08:25:56;;;;;;;5.63;1.25;;;14.90;66.10;;;;;;5414342;26;20068;-71
2024/04/14 08:28:22;;;;;;;3.97;1.10;;;14.90;70.10;;;;;;5414379;26;20023;-70
2024/04/14 08:30:48;;;;;;;4.53;0.93;;;14.90;68.10;;;;;;5413731;26;20016;-70
2024/04/14 08:33:14;;;;;;;5.05;1.02;;;15.00;74.50;;;;;;5413904;26;20007;-71
2024/04/14 08:35:39;;;;;;;6.10;1.50;;;15.30;70.40;;;;;;5377744;26;20093;-71
2024/04/14 08:38:05;;;;;;;3.90;0.98;;;15.30;68.40;;;;;;5393456;26;20365;-71
2024/04/14 08:40:31;;;;;;;4.25;1.05;;;15.40;65.40;;;;;;5413442;26;20022;-71
2024/04/14 08:42:57;;;;;;;4.55;1.13;;;15.40;67.70;;;;;;5377112;26;20036;-72
2024/04/14 08:45:24;;;;;;;4.18;1.25;;;15.40;64.90;;;;;;5399888;26;20520;-70
2024/04/14 08:47:53;;;;;;;7.82;1.13;;;15.40;69.60;;;;;;5382942;26;20031;-71
2024/04/14 08:50:23;;;;;;;6.22;1.98;;;15.20;75.50;;;;;;5416352;26;20021;-71
2024/04/14 08:52:49;;;;;;;5.85;0.80;;;15.20;71.80;;;;;;5417317;26;20017;-71
2024/04/14 08:55:15;;;;;;;5.53;1.63;;;15.30;71.00;;;;;;5416915;26;20022;-70
2024/04/14 08:57:41;;;;;;;8.25;1.50;;;15.50;76.70;;;;;;5417195;26;20010;-71
2024/04/14 09:00:12;;;;;;;25.13;1.55;;;15.10;69.10;;;;;;5417129;26;20003;-71
2024/04/14 09:02:40;;;;;;;3.75;0.88;;;15.00;63.80;;;;;;5417329;26;20007;-71
2024/04/14 09:05:12;;;;;;;7.55;1.30;;;14.60;70.20;;;;;;5385582;26;20018;-70
2024/04/14 09:07:41;;;;;;;4.72;0.88;;;14.30;77.30;;;;;;5417355;26;20483;-71
2024/04/14 09:10:07;;;;;;;5.32;1.40;;;14.40;76.70;;;;;;5408741;26;20004;-71
2024/04/14 09:12:34;;;;;;;9.18;1.38;;;14.20;78.70;;;;;;5417245;26;20015;-71
2024/04/14 09:14:59;;;;;;;5.90;1.52;;;14.10;77.20;;;;;;5416416;26;20007;-70
2024/04/14 09:17:25;;;;;;;3.58;1.20;;;13.90;79.60;;;;;;5416968;26;20053;-71
2024/04/14 09:19:51;;;;;;;6.43;1.23;;;13.90;81.00;;;;;;5417185;26;20015;-71
2024/04/14 09:22:20;;;;;;;4.43;0.63;;;14.00;76.80;;;;;;5416867;26;20026;-71
2024/04/14 09:24:46;;;;;;;4.00;0.90;;;14.20;77.00;;;;;;5416617;26;20015;-71
2024/04/14 09:27:12;;;;;;;3.25;1.05;;;14.00;76.00;;;;;;5416907;26;20458;-71
2024/04/14 09:29:37;;;;;;;5.28;1.27;;;13.90;77.20;;;;;;5416938;26;20053;-71
2024/04/14 09:32:03;;;;;;;3.63;1.20;;;14.00;83.70;;;;;;5417044;26;20382;-70
2024/04/14 09:34:29;;;;;;;4.55;1.15;;;14.10;78.10;;;;;;5416292;26;20018;-70
2024/04/14 09:36:55;;;;;;;5.45;1.25;;;14.10;77.70;;;;;;5416785;26;20007;-70
2024/04/14 09:39:24;;;;;;;5.05;0.90;;;14.30;79.00;;;;;;5416750;26;20007;-71
2024/04/14 09:41:51;;;;;;;8.02;1.15;;;14.70;82.00;;;;;;5416768;26;20007;-71
2024/04/14 09:44:18;;;;;;;7.95;1.10;;;14.60;83.50;;;;;;5416057;26;20463;-70
2024/04/14 09:46:46;;;;;;;5.70;1.20;;;14.80;80.30;;;;;;5416638;26;20007;-71
2024/04/14 09:49:13;;;;;;;5.03;1.30;;;15.10;83.80;;;;;;5416397;26;20084;-71
2024/04/14 09:51:40;;;;;;;3.58;1.02;;;15.50;86.60;;;;;;5416347;26;20019;-69
2024/04/14 09:54:10;;;;;;;5.32;1.27;;;15.20;80.20;;;;;;5393977;26;20035;-71
2024/04/14 09:56:36;;;;;;;4.65;1.55;;;15.20;73.20;;;;;;5383131;26;20031;-70
2024/04/14 09:59:02;;;;;;;5.05;1.17;;;15.20;73.10;;;;;;5416216;26;20008;-71
2024/04/14 10:01:36;;;;;;;6.78;1.00;;;15.00;67.80;;;;;;5412530;26;20425;-69
2024/04/14 10:04:05;;;;;;;7.20;1.38;;;14.80;65.50;;;;;;5370463;26;20015;-71
2024/04/14 10:06:33;;;;;;;7.72;2.28;;;14.80;67.90;;;;;;5369460;26;20534;-71
2024/04/14 10:08:59;;;;;;;6.68;1.20;;;14.90;66.20;;;;;;5370921;26;19999;-72
2024/04/14 10:11:25;;;;;;;2.92;0.80;;;14.70;65.20;;;;;;5371486;26;20014;-71
2024/04/14 10:13:54;;;;;;;6.65;1.35;;;14.80;67.00;;;;;;5340110;26;20775;-70
2024/04/14 10:16:21;;;;;;;4.50;0.85;;;14.70;68.80;;;;;;5370305;26;20015;-70
2024/04/14 10:18:47;;;;;;;6.43;1.10;;;14.70;70.00;;;;;;5370528;26;19999;-70
2024/04/14 10:21:17;;;;;;;5.72;0.70;;;14.70;66.80;;;;;;5370598;26;20794;-70
2024/04/14 10:23:48;;;;;;;6.88;1.27;;;14.80;58.10;;;;;;5370704;26;20003;-70
2024/04/14 10:26:17;;;;;;;3.17;0.85;;;14.80;50.30;;;;;;5371905;26;19999;-70
2024/04/14 10:28:56;;;;;;;7.70;1.10;;;14.90;54.60;;;;;;5370431;26;20010;-69
2024/04/14 10:31:28;;;;;;;2.17;0.82;;;14.90;60.80;;;;;;5370414;26;20539;-69
2024/04/14 10:34:00;;;;;;;13.55;2.22;;;15.00;59.60;;;;;;5370315;26;19999;-70
2024/04/14 10:36:27;;;;;;;4.85;0.98;;;14.90;64.10;;;;;;5370732;26;20544;-70
2024/04/14 10:38:53;;;;;;;6.00;1.15;;;14.90;66.90;;;;;;5340280;26;19999;-70
2024/04/14 10:41:19;;;;;;;3.45;0.95;;;14.50;62.20;;;;;;5370373;26;20011;-70
2024/04/14 10:43:44;;;;;;;5.60;0.88;;;14.50;50.70;;;;;;5370952;26;20094;-71
2024/04/14 10:46:10;;;;;;;8.32;1.50;;;14.20;50.40;;;;;;5339326;26;20549;-70
2024/04/14 10:48:42;;;;;;;3.13;0.82;;;14.10;51.10;;;;;;5371061;26;20199;-70
2024/04/14 10:51:08;;;;;;;10.07;1.48;;;14.20;65.40;;;;;;5339913;26;20010;-70
2024/04/14 10:53:34;;;;;;;5.45;1.13;;;14.20;60.00;;;;;;5370680;26;20335;-70
2024/04/14 10:56:00;;;;;;;4.90;0.70;;;14.50;70.30;;;;;;5370079;26;20010;-70
2024/04/14 10:58:35;;;;;;;4.60;0.90;;;14.40;69.60;;;;;;5371322;26;20011;-72
2024/04/14 11:01:02;;;;;;;7.95;1.63;;;14.40;67.10;;;;;;5371476;26;20000;-71
2024/04/14 11:03:28;;;;;;;5.70;1.08;;;14.20;62.20;;;;;;5370596;26;20085;-69
2024/04/14 11:05:55;;;;;;;1.65;0.77;;;14.00;68.50;;;;;;5370796;26;20591;-71
2024/04/14 11:08:24;;;;;;;4.38;0.82;;;13.80;74.10;;;;;;5371185;26;20779;-70
2024/04/14 11:10:52;;;;;;;2.90;0.85;;;13.60;69.90;;;;;;5415094;26;20351;-70
2024/04/14 11:13:21;;;;;;;4.38;1.17;;;13.80;64.00;;;;;;5411749;26;20488;-70
2024/04/14 11:15:48;;;;;;;6.40;1.25;;;14.00;64.80;;;;;;5415476;26;20003;-70
2024/04/14 11:18:14;;;;;;;6.68;1.67;;;14.10;68.50;;;;;;5415643;26;20004;-71
2024/04/14 11:20:49;;;;;;;7.25;1.77;;;14.00;66.40;;;;;;5383986;26;20016;-71
2024/04/14 11:23:15;;;;;;;4.57;1.00;;;14.00;66.50;;;;;;5414921;26;20073;-70
2024/04/14 11:25:40;;;;;;;6.97;0.90;;;14.10;69.90;;;;;;5415517;26;20019;-70
2024/04/14 11:28:06;;;;;;;6.18;1.50;;;14.00;71.20;;;;;;5415835;26;20003;-70
2024/04/14 11:30:32;;;;;;;7.93;1.25;;;14.20;72.70;;;;;;5415352;26;20462;-70
2024/04/14 11:32:58;;;;;;;8.02;1.10;;;14.30;69.00;;;;;;5415617;26;20003;-70
2024/04/14 11:35:25;;;;;;;6.50;0.93;;;14.40;59.20;;;;;;5414774;26;20340;-70
2024/04/14 11:37:54;;;;;;;3.38;1.10;;;14.60;65.70;;;;;;5415694;26;20044;-70
2024/04/14 11:40:23;;;;;;;3.22;0.80;;;14.90;67.70;;;;;;5384519;26;20488;-69
2024/04/14 11:42:50;;;;;;;5.32;1.42;;;14.90;65.00;;;;;;5415915;26;20011;-70
2024/04/14 11:45:16;;;;;;;3.63;0.85;;;15.00;66.50;;;;;;5415419;26;20015;-70
2024/04/14 11:47:42;;;;;;;4.55;0.70;;;14.70;45.30;;;;;;5416035;26;20014;-70
2024/04/14 11:50:09;;;;;;;6.30;0.88;;;14.60;38.70;;;;;;5415925;26;20038;-70
2024/04/14 11:52:35;;;;;;;5.82;1.05;;;14.60;48.70;;;;;;5415863;26;20011;-70
2024/04/14 11:55:05;;;;;;;4.75;0.98;;;14.70;51.40;;;;;;5415298;26;20004;-70
2024/04/14 11:57:31;;;;;;;5.22;1.00;;;14.80;54.00;;;;;;5415302;26;20003;-69
2024/04/14 11:59:57;;;;;;;4.00;1.00;;;15.00;58.00;;;;;;5415595;26;20003;-70
2024/04/14 12:02:23;;;;;;;5.15;1.25;;;15.10;54.80;;;;;;5415277;26;20015;-70
2024/04/14 12:04:51;;;;;;;4.05;1.05;;;15.00;44.50;;;;;;5414310;26;20626;-71
2024/04/14 12:07:17;;;;;;;1.92;0.63;;;14.80;41.90;;;;;;5446544;21;20003;-72
2024/04/14 12:09:44;;;;;;;5.45;1.30;;;14.70;48.30;;;;;;5437809;26;20003;-73
2024/04/14 12:12:10;;;;;;;5.70;1.02;;;14.40;52.50;;;;;;5431792;26;20021;-74
2024/04/14 12:14:36;;;;;;;4.72;0.80;;;14.20;53.10;;;;;;5433372;26;20007;-73
2024/04/14 12:17:03;;;;;;;4.25;0.93;;;14.10;61.70;;;;;;5440842;26;20461;-72
2024/04/14 12:19:29;;;;;;;4.95;1.27;;;14.00;62.10;;;;;;5471541;26;20017;-73
2024/04/14 12:21:54;;;;;;;2.88;0.80;;;13.80;65.50;;;;;;5486576;26;20073;-73
2024/04/14 12:24:20;;;;;;;8.68;1.40;;;13.70;66.50;;;;;;5455556;26;20002;-73
2024/04/14 12:26:46;;;;;;;7.43;1.25;;;13.60;71.20;;;;;;5490389;26;20026;-73
2024/04/14 12:29:12;;;;;;;4.65;1.85;;;13.60;75.60;;;;;;5490340;26;20017;-73
2024/04/14 12:31:37;;;;;;;7.28;2.00;;;13.50;79.40;;;;;;5490191;26;20461;-72
2024/04/14 12:34:03;;;;;;;12.43;1.38;;;13.50;79.20;;;;;;5489863;26;20339;-73
2024/04/14 12:36:29;;;;;;;6.50;1.98;;;13.60;79.10;;;;;;5490418;26;20002;-73
2024/04/14 12:38:55;;;;;;;5.20;1.00;;;13.80;81.50;;;;;;5490582;26;20009;-73
2024/04/14 12:41:21;;;;;;;5.20;1.60;;;13.80;83.50;;;;;;5490139;26;20010;-73
2024/04/14 12:43:47;;;;;;;6.10;0.90;;;14.10;82.60;;;;;;5457768;26;20010;-73
2024/04/14 12:46:13;;;;;;;8.93;1.10;;;14.30;84.90;;;;;;5490358;26;20017;-73
2024/04/14 12:48:43;;;;;;;5.68;0.98;;;14.30;80.40;;;;;;5490548;26;20457;-73
2024/04/14 12:51:09;;;;;;;4.93;1.20;;;14.30;79.90;;;;;;5490255;26;20045;-73
2024/04/14 12:53:35;;;;;;;8.38;1.48;;;14.20;78.10;;;;;;5489741;26;20002;-73